sensor_id;sensor_type;location;lat;lon;timestamp;P1;durP1;ratioP1;P2;durP2;ratioP2
14187;SDS011;7175;51.978;5.330;2023-04-06T00:00:04;20.63;;;19.13;;
14187;SDS011;7175;51.978;5.330;2023-04-06T00:02:35;20.50;;;19.00;;
14187;SDS011;7175;51.978;5.330;2023-04-06T00:05:04;20.93;;;19.40;;
14187;SDS011;7175;51.978;5.330;2023-04-06T00:07:33;21.30;;;19.70;;
14187;SDS011;7175;51.978;5.330;2023-04-06T00:10:04;21.03;;;19.50;;
14187;SDS011;7175;51.978;5.330;2023-04-06T00:12:33;21.23;;;19.70;;
14187;SDS011;7175;51.978;5.330;2023-04-06T00:15:02;20.77;;;19.27;;
14187;SDS011;7175;51.978;5.330;2023-04-06T00:17:32;21.20;;;19.70;;
14187;SDS011;7175;51.978;5.330;2023-04-06T00:20:00;22.07;;;20.47;;
14187;SDS011;7175;51.978;5.330;2023-04-06T00:22:29;20.70;;;19.20;;
14187;SDS011;7175;51.978;5.330;2023-04-06T00:24:58;20.93;;;19.43;;
14187;SDS011;7175;51.978;5.330;2023-04-06T00:27:27;22.30;;;20.23;;
14187;SDS011;7175;51.978;5.330;2023-04-06T00:29:56;21.13;;;19.63;;
14187;SDS011;7175;51.978;5.330;2023-04-06T00:32:24;21.07;;;19.57;;
14187;SDS011;7175;51.978;5.330;2023-04-06T00:34:53;21.70;;;20.10;;
14187;SDS011;7175;51.978;5.330;2023-04-06T00:37:21;22.13;;;20.53;;
14187;SDS011;7175;51.978;5.330;2023-04-06T00:39:50;22.43;;;20.77;;
14187;SDS011;7175;51.978;5.330;2023-04-06T00:42:19;20.93;;;19.43;;
14187;SDS011;7175;51.978;5.330;2023-04-06T00:44:54;21.10;;;19.60;;
14187;SDS011;7175;51.978;5.330;2023-04-06T00:47:24;21.03;;;19.53;;
14187;SDS011;7175;51.978;5.330;2023-04-06T00:49:53;21.03;;;19.53;;
14187;SDS011;7175;51.978;5.330;2023-04-06T00:52:22;20.60;;;19.10;;
14187;SDS011;7175;51.978;5.330;2023-04-06T00:54:51;21.43;;;19.80;;
14187;SDS011;7175;51.978;5.330;2023-04-06T00:57:20;21.50;;;20.00;;
14187;SDS011;7175;51.978;5.330;2023-04-06T00:59:48;21.53;;;19.97;;
14187;SDS011;7175;51.978;5.330;2023-04-06T01:02:19;21.30;;;19.70;;
14187;SDS011;7175;51.978;5.330;2023-04-06T01:04:47;20.73;;;19.23;;
14187;SDS011;7175;51.978;5.330;2023-04-06T01:07:16;20.70;;;19.20;;
14187;SDS011;7175;51.978;5.330;2023-04-06T01:09:45;22.73;;;21.03;;
14187;SDS011;7175;51.978;5.330;2023-04-06T01:12:13;22.20;;;20.53;;
14187;SDS011;7175;51.978;5.330;2023-04-06T01:14:42;21.43;;;19.83;;
14187;SDS011;7175;51.978;5.330;2023-04-06T01:17:10;21.10;;;19.50;;
14187;SDS011;7175;51.978;5.330;2023-04-06T01:19:40;21.50;;;19.90;;
14187;SDS011;7175;51.978;5.330;2023-04-06T01:22:14;21.43;;;19.83;;
14187;SDS011;7175;51.978;5.330;2023-04-06T01:24:43;21.03;;;19.43;;
14187;SDS011;7175;51.978;5.330;2023-04-06T01:27:12;21.63;;;20.03;;
14187;SDS011;7175;51.978;5.330;2023-04-06T01:29:41;20.87;;;19.27;;
14187;SDS011;7175;51.978;5.330;2023-04-06T01:32:10;21.40;;;19.80;;
14187;SDS011;7175;51.978;5.330;2023-04-06T01:34:38;20.80;;;19.20;;
14187;SDS011;7175;51.978;5.330;2023-04-06T01:37:07;21.17;;;19.67;;
14187;SDS011;7175;51.978;5.330;2023-04-06T01:39:37;20.57;;;19.17;;
14187;SDS011;7175;51.978;5.330;2023-04-06T01:42:06;22.57;;;20.87;;
14187;SDS011;7175;51.978;5.330;2023-04-06T01:44:34;20.80;;;19.30;;
14187;SDS011;7175;51.978;5.330;2023-04-06T01:47:03;20.90;;;19.40;;
14187;SDS011;7175;51.978;5.330;2023-04-06T01:49:32;21.70;;;20.20;;
14187;SDS011;7175;51.978;5.330;2023-04-06T01:52:00;21.43;;;19.93;;
14187;SDS011;7175;51.978;5.330;2023-04-06T01:54:29;24.03;;;22.13;;
14187;SDS011;7175;51.978;5.330;2023-04-06T01:56:59;20.00;;;18.60;;
14187;SDS011;7175;51.978;5.330;2023-04-06T01:59:27;20.60;;;19.10;;
14187;SDS011;7175;51.978;5.330;2023-04-06T02:01:55;21.00;;;19.43;;
14187;SDS011;7175;51.978;5.330;2023-04-06T02:04:24;21.03;;;19.53;;
14187;SDS011;7175;51.978;5.330;2023-04-06T02:06:52;20.30;;;18.90;;
14187;SDS011;7175;51.978;5.330;2023-04-06T02:09:21;20.57;;;19.07;;
14187;SDS011;7175;51.978;5.330;2023-04-06T02:11:50;20.90;;;19.40;;
14187;SDS011;7175;51.978;5.330;2023-04-06T02:14:19;20.23;;;18.83;;
14187;SDS011;7175;51.978;5.330;2023-04-06T02:16:48;20.03;;;18.63;;
14187;SDS011;7175;51.978;5.330;2023-04-06T02:19:17;21.10;;;19.60;;
14187;SDS011;7175;51.978;5.330;2023-04-06T02:21:46;20.40;;;19.00;;
14187;SDS011;7175;51.978;5.330;2023-04-06T02:24:14;19.80;;;18.40;;
14187;SDS011;7175;51.978;5.330;2023-04-06T02:26:43;20.57;;;19.17;;
14187;SDS011;7175;51.978;5.330;2023-04-06T02:29:11;21.87;;;19.97;;
14187;SDS011;7175;51.978;5.330;2023-04-06T02:31:41;20.70;;;19.30;;
14187;SDS011;7175;51.978;5.330;2023-04-06T02:34:09;20.10;;;18.70;;
14187;SDS011;7175;51.978;5.330;2023-04-06T02:36:44;20.17;;;18.77;;
14187;SDS011;7175;51.978;5.330;2023-04-06T02:39:13;20.03;;;18.63;;
14187;SDS011;7175;51.978;5.330;2023-04-06T02:41:42;23.40;;;20.80;;
14187;SDS011;7175;51.978;5.330;2023-04-06T02:44:11;20.20;;;18.80;;
14187;SDS011;7175;51.978;5.330;2023-04-06T02:46:41;19.80;;;18.40;;
14187;SDS011;7175;51.978;5.330;2023-04-06T02:49:09;20.23;;;18.80;;
14187;SDS011;7175;51.978;5.330;2023-04-06T02:51:38;19.80;;;18.40;;
14187;SDS011;7175;51.978;5.330;2023-04-06T02:54:06;20.80;;;19.30;;
14187;SDS011;7175;51.978;5.330;2023-04-06T02:56:35;19.77;;;18.37;;
14187;SDS011;7175;51.978;5.330;2023-04-06T02:59:03;19.97;;;18.57;;
14187;SDS011;7175;51.978;5.330;2023-04-06T03:01:32;19.97;;;18.57;;
14187;SDS011;7175;51.978;5.330;2023-04-06T03:04:03;20.63;;;19.07;;
14187;SDS011;7175;51.978;5.330;2023-04-06T03:06:31;20.00;;;18.50;;
14187;SDS011;7175;51.978;5.330;2023-04-06T03:09:00;19.90;;;18.43;;
14187;SDS011;7175;51.978;5.330;2023-04-06T03:11:28;20.20;;;18.70;;
14187;SDS011;7175;51.978;5.330;2023-04-06T03:13:57;20.20;;;18.70;;
14187;SDS011;7175;51.978;5.330;2023-04-06T03:16:25;20.00;;;18.50;;
14187;SDS011;7175;51.978;5.330;2023-04-06T03:18:54;20.53;;;19.03;;
14187;SDS011;7175;51.978;5.330;2023-04-06T03:21:24;21.20;;;19.70;;
14187;SDS011;7175;51.978;5.330;2023-04-06T03:23:52;20.20;;;18.70;;
14187;SDS011;7175;51.978;5.330;2023-04-06T03:26:20;20.90;;;19.20;;
14187;SDS011;7175;51.978;5.330;2023-04-06T03:28:50;20.17;;;18.67;;
14187;SDS011;7175;51.978;5.330;2023-04-06T03:31:18;20.47;;;19.07;;
14187;SDS011;7175;51.978;5.330;2023-04-06T03:33:47;20.10;;;18.70;;
14187;SDS011;7175;51.978;5.330;2023-04-06T03:36:15;20.00;;;18.60;;
14187;SDS011;7175;51.978;5.330;2023-04-06T03:38:46;20.73;;;19.30;;
14187;SDS011;7175;51.978;5.330;2023-04-06T03:41:14;20.30;;;18.90;;
14187;SDS011;7175;51.978;5.330;2023-04-06T03:43:43;21.50;;;20.00;;
14187;SDS011;7175;51.978;5.330;2023-04-06T03:46:11;20.50;;;19.10;;
14187;SDS011;7175;51.978;5.330;2023-04-06T03:48:40;20.43;;;19.03;;
14187;SDS011;7175;51.978;5.330;2023-04-06T03:51:08;21.20;;;19.70;;
14187;SDS011;7175;51.978;5.330;2023-04-06T03:53:37;21.20;;;19.70;;
14187;SDS011;7175;51.978;5.330;2023-04-06T03:56:07;21.10;;;19.60;;
14187;SDS011;7175;51.978;5.330;2023-04-06T03:58:35;21.60;;;20.10;;
14187;SDS011;7175;51.978;5.330;2023-04-06T04:01:04;21.10;;;19.60;;
14187;SDS011;7175;51.978;5.330;2023-04-06T04:03:32;21.40;;;19.90;;
14187;SDS011;7175;51.978;5.330;2023-04-06T04:06:01;21.43;;;19.93;;
14187;SDS011;7175;51.978;5.330;2023-04-06T04:08:30;20.80;;;19.30;;
14187;SDS011;7175;51.978;5.330;2023-04-06T04:10:59;24.57;;;22.40;;
14187;SDS011;7175;51.978;5.330;2023-04-06T04:13:28;22.27;;;20.67;;
14187;SDS011;7175;51.978;5.330;2023-04-06T04:15:57;21.20;;;19.70;;
14187;SDS011;7175;51.978;5.330;2023-04-06T04:18:25;21.10;;;19.50;;
14187;SDS011;7175;51.978;5.330;2023-04-06T04:20:54;21.17;;;19.67;;
14187;SDS011;7175;51.978;5.330;2023-04-06T04:23:22;21.13;;;19.63;;
14187;SDS011;7175;51.978;5.330;2023-04-06T04:25:51;21.80;;;20.20;;
14187;SDS011;7175;51.978;5.330;2023-04-06T04:28:19;20.47;;;18.97;;
14187;SDS011;7175;51.978;5.330;2023-04-06T04:30:49;23.23;;;21.57;;
14187;SDS011;7175;51.978;5.330;2023-04-06T04:33:17;21.23;;;19.73;;
14187;SDS011;7175;51.978;5.330;2023-04-06T04:35:46;21.93;;;20.37;;
14187;SDS011;7175;51.978;5.330;2023-04-06T04:38:14;21.20;;;19.70;;
14187;SDS011;7175;51.978;5.330;2023-04-06T04:40:43;21.67;;;20.17;;
14187;SDS011;7175;51.978;5.330;2023-04-06T04:43:11;22.13;;;20.43;;
14187;SDS011;7175;51.978;5.330;2023-04-06T04:45:40;23.70;;;22.00;;
14187;SDS011;7175;51.978;5.330;2023-04-06T04:48:10;21.00;;;19.50;;
14187;SDS011;7175;51.978;5.330;2023-04-06T04:50:38;20.37;;;18.87;;
14187;SDS011;7175;51.978;5.330;2023-04-06T04:53:06;21.37;;;19.80;;
14187;SDS011;7175;51.978;5.330;2023-04-06T04:55:35;19.67;;;18.27;;
14187;SDS011;7175;51.978;5.330;2023-04-06T04:58:04;18.97;;;17.57;;
14187;SDS011;7175;51.978;5.330;2023-04-06T05:00:32;19.77;;;18.30;;
14187;SDS011;7175;51.978;5.330;2023-04-06T05:03:01;18.90;;;17.50;;
14187;SDS011;7175;51.978;5.330;2023-04-06T05:05:33;19.80;;;18.30;;
14187;SDS011;7175;51.978;5.330;2023-04-06T05:08:02;19.73;;;18.23;;
14187;SDS011;7175;51.978;5.330;2023-04-06T05:10:31;19.30;;;17.83;;
14187;SDS011;7175;51.978;5.330;2023-04-06T05:13:00;19.07;;;17.57;;
14187;SDS011;7175;51.978;5.330;2023-04-06T05:15:29;18.90;;;17.40;;
14187;SDS011;7175;51.978;5.330;2023-04-06T05:17:58;19.80;;;18.30;;
14187;SDS011;7175;51.978;5.330;2023-04-06T05:20:26;18.70;;;17.20;;
14187;SDS011;7175;51.978;5.330;2023-04-06T05:22:56;20.40;;;18.70;;
14187;SDS011;7175;51.978;5.330;2023-04-06T05:25:25;18.70;;;17.20;;
14187;SDS011;7175;51.978;5.330;2023-04-06T05:27:54;18.63;;;17.23;;
14187;SDS011;7175;51.978;5.330;2023-04-06T05:30:23;18.93;;;17.53;;
14187;SDS011;7175;51.978;5.330;2023-04-06T05:32:52;19.07;;;17.60;;
14187;SDS011;7175;51.978;5.330;2023-04-06T05:35:20;19.80;;;18.23;;
14187;SDS011;7175;51.978;5.330;2023-04-06T05:37:49;20.17;;;18.57;;
14187;SDS011;7175;51.978;5.330;2023-04-06T05:40:19;20.07;;;18.57;;
14187;SDS011;7175;51.978;5.330;2023-04-06T05:42:47;19.70;;;18.20;;
14187;SDS011;7175;51.978;5.330;2023-04-06T05:45:16;19.07;;;17.57;;
14187;SDS011;7175;51.978;5.330;2023-04-06T05:47:45;19.20;;;17.70;;
14187;SDS011;7175;51.978;5.330;2023-04-06T05:50:14;18.53;;;17.13;;
14187;SDS011;7175;51.978;5.330;2023-04-06T05:52:43;20.37;;;18.63;;
14187;SDS011;7175;51.978;5.330;2023-04-06T05:55:13;19.03;;;17.53;;
14187;SDS011;7175;51.978;5.330;2023-04-06T05:57:43;21.00;;;19.40;;
14187;SDS011;7175;51.978;5.330;2023-04-06T06:00:12;18.77;;;17.37;;
14187;SDS011;7175;51.978;5.330;2023-04-06T06:02:42;19.57;;;18.07;;
14187;SDS011;7175;51.978;5.330;2023-04-06T06:05:11;20.40;;;18.77;;
14187;SDS011;7175;51.978;5.330;2023-04-06T06:11:28;19.50;;;18.00;;
14187;SDS011;7175;51.978;5.330;2023-04-06T06:13:58;20.47;;;18.80;;
14187;SDS011;7175;51.978;5.330;2023-04-06T06:16:26;21.37;;;19.57;;
14187;SDS011;7175;51.978;5.330;2023-04-06T06:18:55;20.20;;;18.60;;
14187;SDS011;7175;51.978;5.330;2023-04-06T06:21:24;19.60;;;18.10;;
14187;SDS011;7175;51.978;5.330;2023-04-06T06:23:53;19.73;;;18.13;;
14187;SDS011;7175;51.978;5.330;2023-04-06T06:26:21;21.00;;;19.33;;
14187;SDS011;7175;51.978;5.330;2023-04-06T06:28:50;19.50;;;18.00;;
14187;SDS011;7175;51.978;5.330;2023-04-06T06:31:19;19.97;;;18.40;;
14187;SDS011;7175;51.978;5.330;2023-04-06T06:33:49;19.67;;;18.07;;
14187;SDS011;7175;51.978;5.330;2023-04-06T06:36:18;18.87;;;17.37;;
14187;SDS011;7175;51.978;5.330;2023-04-06T06:38:47;19.77;;;18.17;;
14187;SDS011;7175;51.978;5.330;2023-04-06T06:41:15;19.10;;;17.60;;
14187;SDS011;7175;51.978;5.330;2023-04-06T06:43:44;19.50;;;17.90;;
14187;SDS011;7175;51.978;5.330;2023-04-06T06:46:13;19.17;;;17.67;;
14187;SDS011;7175;51.978;5.330;2023-04-06T06:48:43;19.63;;;18.03;;
14187;SDS011;7175;51.978;5.330;2023-04-06T06:51:12;19.27;;;17.77;;
14187;SDS011;7175;51.978;5.330;2023-04-06T06:53:40;19.70;;;18.10;;
14187;SDS011;7175;51.978;5.330;2023-04-06T06:56:11;19.80;;;18.20;;
14187;SDS011;7175;51.978;5.330;2023-04-06T06:58:40;19.13;;;17.63;;
14187;SDS011;7175;51.978;5.330;2023-04-06T07:01:09;19.83;;;18.23;;
14187;SDS011;7175;51.978;5.330;2023-04-06T07:03:38;20.10;;;18.40;;
14187;SDS011;7175;51.978;5.330;2023-04-06T07:06:08;19.97;;;18.27;;
14187;SDS011;7175;51.978;5.330;2023-04-06T07:08:36;19.80;;;18.20;;
14187;SDS011;7175;51.978;5.330;2023-04-06T07:11:05;19.87;;;18.17;;
14187;SDS011;7175;51.978;5.330;2023-04-06T07:13:34;20.27;;;18.43;;
14187;SDS011;7175;51.978;5.330;2023-04-06T07:16:02;24.73;;;20.00;;
14187;SDS011;7175;51.978;5.330;2023-04-06T07:18:31;19.50;;;17.90;;
14187;SDS011;7175;51.978;5.330;2023-04-06T07:21:02;19.13;;;17.53;;
14187;SDS011;7175;51.978;5.330;2023-04-06T07:23:32;19.80;;;18.30;;
14187;SDS011;7175;51.978;5.330;2023-04-06T07:26:01;18.70;;;17.20;;
14187;SDS011;7175;51.978;5.330;2023-04-06T07:28:29;19.37;;;17.87;;
14187;SDS011;7175;51.978;5.330;2023-04-06T07:30:58;18.90;;;17.40;;
14187;SDS011;7175;51.978;5.330;2023-04-06T07:33:26;19.60;;;18.00;;
14187;SDS011;7175;51.978;5.330;2023-04-06T07:35:56;19.80;;;18.30;;
14187;SDS011;7175;51.978;5.330;2023-04-06T07:38:25;19.10;;;17.60;;
14187;SDS011;7175;51.978;5.330;2023-04-06T07:40:55;18.80;;;17.30;;
14187;SDS011;7175;51.978;5.330;2023-04-06T07:43:24;19.60;;;18.00;;
14187;SDS011;7175;51.978;5.330;2023-04-06T07:45:52;18.90;;;17.40;;
14187;SDS011;7175;51.978;5.330;2023-04-06T07:48:22;19.73;;;18.03;;
14187;SDS011;7175;51.978;5.330;2023-04-06T07:50:50;18.83;;;17.33;;
14187;SDS011;7175;51.978;5.330;2023-04-06T07:53:19;20.20;;;18.60;;
14187;SDS011;7175;51.978;5.330;2023-04-06T07:55:48;19.80;;;18.20;;
14187;SDS011;7175;51.978;5.330;2023-04-06T07:58:18;19.83;;;17.87;;
14187;SDS011;7175;51.978;5.330;2023-04-06T08:00:46;19.00;;;17.50;;
14187;SDS011;7175;51.978;5.330;2023-04-06T08:03:15;18.50;;;17.00;;
14187;SDS011;7175;51.978;5.330;2023-04-06T08:05:44;18.90;;;17.40;;
14187;SDS011;7175;51.978;5.330;2023-04-06T08:08:13;19.00;;;17.40;;
14187;SDS011;7175;51.978;5.330;2023-04-06T08:10:42;20.03;;;18.33;;
14187;SDS011;7175;51.978;5.330;2023-04-06T08:13:11;20.07;;;18.47;;
14187;SDS011;7175;51.978;5.330;2023-04-06T08:15:41;19.90;;;18.30;;
14187;SDS011;7175;51.978;5.330;2023-04-06T08:18:09;20.30;;;18.30;;
14187;SDS011;7175;51.978;5.330;2023-04-06T08:20:38;19.70;;;18.10;;
14187;SDS011;7175;51.978;5.330;2023-04-06T08:23:07;19.53;;;18.00;;
14187;SDS011;7175;51.978;5.330;2023-04-06T08:25:36;20.37;;;18.77;;
14187;SDS011;7175;51.978;5.330;2023-04-06T08:28:05;19.47;;;17.97;;
14187;SDS011;7175;51.978;5.330;2023-04-06T08:30:33;19.97;;;18.47;;
14187;SDS011;7175;51.978;5.330;2023-04-06T08:33:03;19.93;;;18.43;;
14187;SDS011;7175;51.978;5.330;2023-04-06T08:35:32;20.20;;;18.60;;
14187;SDS011;7175;51.978;5.330;2023-04-06T08:38:01;19.97;;;18.37;;
14187;SDS011;7175;51.978;5.330;2023-04-06T08:40:29;20.30;;;18.73;;
14187;SDS011;7175;51.978;5.330;2023-04-06T08:42:59;20.03;;;18.40;;
14187;SDS011;7175;51.978;5.330;2023-04-06T08:45:30;19.03;;;17.53;;
14187;SDS011;7175;51.978;5.330;2023-04-06T08:47:58;19.43;;;17.93;;
14187;SDS011;7175;51.978;5.330;2023-04-06T08:50:29;22.20;;;20.23;;
14187;SDS011;7175;51.978;5.330;2023-04-06T08:53:00;20.47;;;18.87;;
14187;SDS011;7175;51.978;5.330;2023-04-06T08:55:29;20.67;;;19.07;;
14187;SDS011;7175;51.978;5.330;2023-04-06T08:57:58;19.50;;;18.00;;
14187;SDS011;7175;51.978;5.330;2023-04-06T09:00:28;19.87;;;18.27;;
14187;SDS011;7175;51.978;5.330;2023-04-06T09:02:57;19.47;;;17.87;;
14187;SDS011;7175;51.978;5.330;2023-04-06T09:05:26;20.93;;;19.23;;
14187;SDS011;7175;51.978;5.330;2023-04-06T09:07:56;20.97;;;19.27;;
14187;SDS011;7175;51.978;5.330;2023-04-06T09:10:25;21.23;;;19.53;;
14187;SDS011;7175;51.978;5.330;2023-04-06T09:13:02;19.90;;;18.30;;
14187;SDS011;7175;51.978;5.330;2023-04-06T09:15:31;20.40;;;18.80;;
14187;SDS011;7175;51.978;5.330;2023-04-06T09:17:59;19.50;;;17.90;;
14187;SDS011;7175;51.978;5.330;2023-04-06T09:20:28;19.47;;;17.87;;
14187;SDS011;7175;51.978;5.330;2023-04-06T09:22:58;19.50;;;17.90;;
14187;SDS011;7175;51.978;5.330;2023-04-06T09:25:27;19.50;;;17.90;;
14187;SDS011;7175;51.978;5.330;2023-04-06T09:27:58;18.70;;;17.20;;
14187;SDS011;7175;51.978;5.330;2023-04-06T09:30:27;20.40;;;18.70;;
14187;SDS011;7175;51.978;5.330;2023-04-06T09:32:57;19.17;;;17.63;;
14187;SDS011;7175;51.978;5.330;2023-04-06T09:35:26;21.33;;;19.53;;
14187;SDS011;7175;51.978;5.330;2023-04-06T09:38:09;19.73;;;18.17;;
14187;SDS011;7175;51.978;5.330;2023-04-06T09:40:46;19.37;;;17.77;;
14187;SDS011;7175;51.978;5.330;2023-04-06T09:43:28;19.97;;;18.37;;
14187;SDS011;7175;51.978;5.330;2023-04-06T09:45:57;20.30;;;18.70;;
14187;SDS011;7175;51.978;5.330;2023-04-06T09:48:30;19.07;;;17.57;;
14187;SDS011;7175;51.978;5.330;2023-04-06T09:51:03;19.87;;;18.27;;
14187;SDS011;7175;51.978;5.330;2023-04-06T09:53:34;19.87;;;18.37;;
14187;SDS011;7175;51.978;5.330;2023-04-06T09:56:06;19.60;;;18.10;;
14187;SDS011;7175;51.978;5.330;2023-04-06T09:58:39;19.70;;;18.10;;
14187;SDS011;7175;51.978;5.330;2023-04-06T10:01:12;19.90;;;18.30;;
14187;SDS011;7175;51.978;5.330;2023-04-06T10:03:45;19.67;;;18.13;;
14187;SDS011;7175;51.978;5.330;2023-04-06T10:06:18;20.63;;;18.77;;
14187;SDS011;7175;51.978;5.330;2023-04-06T10:08:51;19.13;;;17.60;;
14187;SDS011;7175;51.978;5.330;2023-04-06T10:11:22;19.10;;;17.53;;
14187;SDS011;7175;51.978;5.330;2023-04-06T10:13:51;19.10;;;17.60;;
14187;SDS011;7175;51.978;5.330;2023-04-06T10:16:19;19.90;;;18.30;;
14187;SDS011;7175;51.978;5.330;2023-04-06T10:18:50;20.13;;;18.53;;
14187;SDS011;7175;51.978;5.330;2023-04-06T10:21:24;20.87;;;18.97;;
14187;SDS011;7175;51.978;5.330;2023-04-06T10:23:57;19.63;;;18.03;;
14187;SDS011;7175;51.978;5.330;2023-04-06T10:26:28;19.53;;;17.93;;
14187;SDS011;7175;51.978;5.330;2023-04-06T10:29:01;20.10;;;18.50;;
14187;SDS011;7175;51.978;5.330;2023-04-06T10:31:31;20.30;;;18.70;;
14187;SDS011;7175;51.978;5.330;2023-04-06T10:34:00;20.90;;;19.20;;
14187;SDS011;7175;51.978;5.330;2023-04-06T10:36:31;21.70;;;19.90;;
14187;SDS011;7175;51.978;5.330;2023-04-06T10:39:03;21.33;;;19.53;;
14187;SDS011;7175;51.978;5.330;2023-04-06T10:41:33;21.90;;;20.10;;
14187;SDS011;7175;51.978;5.330;2023-04-06T10:44:02;22.27;;;20.43;;
14187;SDS011;7175;51.978;5.330;2023-04-06T10:46:32;21.90;;;20.10;;
14187;SDS011;7175;51.978;5.330;2023-04-06T10:49:09;22.00;;;20.20;;
14187;SDS011;7175;51.978;5.330;2023-04-06T10:51:39;22.73;;;20.90;;
14187;SDS011;7175;51.978;5.330;2023-04-06T10:54:09;23.40;;;21.50;;
14187;SDS011;7175;51.978;5.330;2023-04-06T10:56:40;23.57;;;21.67;;
14187;SDS011;7175;51.978;5.330;2023-04-06T10:59:08;24.07;;;21.97;;
14187;SDS011;7175;51.978;5.330;2023-04-06T11:01:37;24.40;;;22.50;;
14187;SDS011;7175;51.978;5.330;2023-04-06T11:04:06;24.70;;;22.70;;
14187;SDS011;7175;51.978;5.330;2023-04-06T11:06:37;24.73;;;22.73;;
14187;SDS011;7175;51.978;5.330;2023-04-06T11:09:06;24.70;;;22.70;;
14187;SDS011;7175;51.978;5.330;2023-04-06T11:11:38;25.33;;;23.23;;
14187;SDS011;7175;51.978;5.330;2023-04-06T11:14:09;25.77;;;23.67;;
14187;SDS011;7175;51.978;5.330;2023-04-06T11:16:37;28.43;;;25.90;;
14187;SDS011;7175;51.978;5.330;2023-04-06T11:19:06;26.70;;;24.60;;
14187;SDS011;7175;51.978;5.330;2023-04-06T11:21:35;28.47;;;26.27;;
14187;SDS011;7175;51.978;5.330;2023-04-06T11:24:11;28.13;;;25.93;;
14187;SDS011;7175;51.978;5.330;2023-04-06T11:26:42;29.90;;;27.60;;
14187;SDS011;7175;51.978;5.330;2023-04-06T11:29:12;31.80;;;29.40;;
14187;SDS011;7175;51.978;5.330;2023-04-06T11:31:44;30.43;;;28.03;;
14187;SDS011;7175;51.978;5.330;2023-04-06T11:34:16;31.43;;;29.03;;
14187;SDS011;7175;51.978;5.330;2023-04-06T11:36:47;31.47;;;29.07;;
14187;SDS011;7175;51.978;5.330;2023-04-06T11:39:22;33.10;;;30.67;;
14187;SDS011;7175;51.978;5.330;2023-04-06T11:41:53;31.00;;;28.57;;
14187;SDS011;7175;51.978;5.330;2023-04-06T11:44:32;32.30;;;29.90;;
14187;SDS011;7175;51.978;5.330;2023-04-06T11:47:03;32.87;;;30.37;;
14187;SDS011;7175;51.978;5.330;2023-04-06T11:49:37;31.03;;;28.67;;
14187;SDS011;7175;51.978;5.330;2023-04-06T11:52:14;28.77;;;26.57;;
14187;SDS011;7175;51.978;5.330;2023-04-06T11:54:46;31.10;;;28.80;;
14187;SDS011;7175;51.978;5.330;2023-04-06T11:57:16;32.00;;;29.60;;
14187;SDS011;7175;51.978;5.330;2023-04-06T11:59:46;31.50;;;29.10;;
14187;SDS011;7175;51.978;5.330;2023-04-06T12:02:15;33.70;;;30.93;;
14187;SDS011;7175;51.978;5.330;2023-04-06T12:04:44;31.63;;;29.13;;
14187;SDS011;7175;51.978;5.330;2023-04-06T12:07:14;32.13;;;29.70;;
14187;SDS011;7175;51.978;5.330;2023-04-06T12:09:43;32.47;;;29.97;;
14187;SDS011;7175;51.978;5.330;2023-04-06T12:12:13;33.63;;;31.13;;
14187;SDS011;7175;51.978;5.330;2023-04-06T12:14:42;37.60;;;34.90;;
14187;SDS011;7175;51.978;5.330;2023-04-06T12:17:11;32.70;;;30.30;;
14187;SDS011;7175;51.978;5.330;2023-04-06T12:19:39;35.20;;;32.60;;
14187;SDS011;7175;51.978;5.330;2023-04-06T12:22:09;33.50;;;31.00;;
14187;SDS011;7175;51.978;5.330;2023-04-06T12:24:38;32.57;;;30.07;;
14187;SDS011;7175;51.978;5.330;2023-04-06T12:27:08;30.40;;;28.00;;
14187;SDS011;7175;51.978;5.330;2023-04-06T12:29:39;32.00;;;29.60;;
14187;SDS011;7175;51.978;5.330;2023-04-06T12:32:08;33.63;;;31.13;;
14187;SDS011;7175;51.978;5.330;2023-04-06T12:34:37;30.50;;;28.10;;
14187;SDS011;7175;51.978;5.330;2023-04-06T12:37:06;30.60;;;28.20;;
14187;SDS011;7175;51.978;5.330;2023-04-06T12:39:35;32.17;;;29.57;;
14187;SDS011;7175;51.978;5.330;2023-04-06T12:42:04;29.90;;;27.60;;
14187;SDS011;7175;51.978;5.330;2023-04-06T12:44:32;30.70;;;28.30;;
14187;SDS011;7175;51.978;5.330;2023-04-06T12:47:03;31.87;;;29.40;;
14187;SDS011;7175;51.978;5.330;2023-04-06T12:49:34;33.70;;;31.10;;
14187;SDS011;7175;51.978;5.330;2023-04-06T12:52:03;34.83;;;32.13;;
14187;SDS011;7175;51.978;5.330;2023-04-06T12:54:32;35.80;;;33.00;;
14187;SDS011;7175;51.978;5.330;2023-04-06T12:57:01;36.60;;;33.80;;
14187;SDS011;7175;51.978;5.330;2023-04-06T12:59:31;37.03;;;34.13;;
14187;SDS011;7175;51.978;5.330;2023-04-06T13:02:04;38.43;;;35.53;;
14187;SDS011;7175;51.978;5.330;2023-04-06T13:04:33;39.53;;;36.60;;
14187;SDS011;7175;51.978;5.330;2023-04-06T13:07:02;41.07;;;37.97;;
14187;SDS011;7175;51.978;5.330;2023-04-06T13:09:31;41.27;;;38.17;;
14187;SDS011;7175;51.978;5.330;2023-04-06T13:12:00;39.00;;;36.03;;
14187;SDS011;7175;51.978;5.330;2023-04-06T13:14:29;41.77;;;38.67;;
14187;SDS011;7175;51.978;5.330;2023-04-06T13:16:57;44.60;;;41.20;;
14187;SDS011;7175;51.978;5.330;2023-04-06T13:19:28;45.17;;;41.77;;
14187;SDS011;7175;51.978;5.330;2023-04-06T13:21:57;47.20;;;43.70;;
14187;SDS011;7175;51.978;5.330;2023-04-06T13:24:26;48.53;;;44.93;;
14187;SDS011;7175;51.978;5.330;2023-04-06T13:26:56;52.17;;;48.37;;
14187;SDS011;7175;51.978;5.330;2023-04-06T13:29:24;51.07;;;47.27;;
14187;SDS011;7175;51.978;5.330;2023-04-06T13:31:53;48.83;;;45.23;;
14187;SDS011;7175;51.978;5.330;2023-04-06T13:34:22;52.17;;;48.27;;
14187;SDS011;7175;51.978;5.330;2023-04-06T13:36:52;54.77;;;50.77;;
14187;SDS011;7175;51.978;5.330;2023-04-06T13:39:21;57.03;;;52.87;;
14187;SDS011;7175;51.978;5.330;2023-04-06T13:41:53;55.23;;;51.13;;
14187;SDS011;7175;51.978;5.330;2023-04-06T13:44:22;53.77;;;49.57;;
14187;SDS011;7175;51.978;5.330;2023-04-06T13:46:51;58.67;;;54.43;;
14187;SDS011;7175;51.978;5.330;2023-04-06T13:49:20;59.43;;;55.07;;
14187;SDS011;7175;51.978;5.330;2023-04-06T13:51:49;55.80;;;51.70;;
14187;SDS011;7175;51.978;5.330;2023-04-06T13:54:20;56.50;;;52.30;;
14187;SDS011;7175;51.978;5.330;2023-04-06T13:56:49;56.87;;;52.67;;
14187;SDS011;7175;51.978;5.330;2023-04-06T13:59:19;54.00;;;50.00;;
14187;SDS011;7175;51.978;5.330;2023-04-06T14:01:48;57.60;;;53.40;;
14187;SDS011;7175;51.978;5.330;2023-04-06T14:04:17;58.50;;;54.20;;
14187;SDS011;7175;51.978;5.330;2023-04-06T14:06:46;59.70;;;55.30;;
14187;SDS011;7175;51.978;5.330;2023-04-06T14:09:15;56.80;;;52.70;;
14187;SDS011;7175;51.978;5.330;2023-04-06T14:11:45;61.23;;;56.73;;
14187;SDS011;7175;51.978;5.330;2023-04-06T14:14:14;59.60;;;55.27;;
14187;SDS011;7175;51.978;5.330;2023-04-06T14:16:43;58.63;;;54.33;;
14187;SDS011;7175;51.978;5.330;2023-04-06T14:19:14;59.63;;;55.23;;
14187;SDS011;7175;51.978;5.330;2023-04-06T14:21:44;58.70;;;54.30;;
14187;SDS011;7175;51.978;5.330;2023-04-06T14:24:14;61.33;;;56.83;;
14187;SDS011;7175;51.978;5.330;2023-04-06T14:26:46;62.00;;;57.40;;
14187;SDS011;7175;51.978;5.330;2023-04-06T14:29:14;61.03;;;56.53;;
14187;SDS011;7175;51.978;5.330;2023-04-06T14:31:45;60.40;;;55.80;;
14187;SDS011;7175;51.978;5.330;2023-04-06T14:34:15;61.27;;;56.70;;
14187;SDS011;7175;51.978;5.330;2023-04-06T14:36:44;67.90;;;62.90;;
14187;SDS011;7175;51.978;5.330;2023-04-06T14:39:13;67.33;;;62.23;;
14187;SDS011;7175;51.978;5.330;2023-04-06T14:41:42;62.47;;;57.67;;
14187;SDS011;7175;51.978;5.330;2023-04-06T14:44:13;65.90;;;60.70;;
14187;SDS011;7175;51.978;5.330;2023-04-06T14:46:43;67.33;;;62.23;;
14187;SDS011;7175;51.978;5.330;2023-04-06T14:49:12;67.07;;;61.77;;